createdAt,value
2022-12-04T00:02:25.390Z,64.97
2022-12-04T00:04:52.104Z,65.27
2022-12-04T00:07:18.875Z,64.83
2022-12-04T00:09:45.579Z,64.44
2022-12-04T00:12:12.227Z,64.29
2022-12-04T00:15:00.716Z,64.36
2022-12-04T00:17:25.489Z,64.29
2022-12-04T00:19:52.287Z,64.40
2022-12-04T00:22:19.081Z,63.73
2022-12-04T00:24:45.728Z,63.91
2022-12-04T00:27:12.391Z,63.84
2022-12-04T00:29:39.024Z,64.06
2022-12-04T00:32:05.763Z,63.72
2022-12-04T00:34:32.461Z,63.88
2022-12-04T00:36:59.092Z,63.55
2022-12-04T00:39:25.798Z,63.92
2022-12-04T00:41:52.421Z,64.00
2022-12-04T00:44:19.072Z,64.00
2022-12-04T00:46:45.815Z,63.70
2022-12-04T00:49:12.435Z,63.90
2022-12-04T00:51:39.062Z,63.59
2022-12-04T00:54:05.688Z,64.06
2022-12-04T00:56:32.325Z,64.27
2022-12-04T00:58:59.442Z,64.25
2022-12-04T01:01:29.577Z,63.97
2022-12-04T01:03:56.298Z,63.89
2022-12-04T01:06:27.471Z,63.88
2022-12-04T01:08:54.460Z,64.20
2022-12-04T01:11:21.517Z,63.75
2022-12-04T01:13:48.189Z,64.26
2022-12-04T01:16:22.923Z,64.48
2022-12-04T01:18:49.862Z,64.32
2022-12-04T01:21:16.762Z,64.60
2022-12-04T01:23:43.396Z,64.35
2022-12-04T01:26:10.119Z,64.24
2022-12-04T01:28:36.769Z,64.27
2022-12-04T01:31:11.181Z,64.05
2022-12-04T01:33:37.994Z,64.01
2022-12-04T01:36:06.015Z,64.52
2022-12-04T01:38:33.225Z,64.14
2022-12-04T01:40:59.878Z,64.53
2022-12-04T01:43:26.547Z,64.84
2022-12-04T01:45:54.425Z,64.38
2022-12-04T01:48:53.287Z,64.39
2022-12-04T01:51:29.047Z,64.57
2022-12-04T01:54:09.033Z,64.88
2022-12-04T01:56:41.379Z,64.99
2022-12-04T01:59:08.393Z,64.99
2022-12-04T02:01:38.757Z,65.44
2022-12-04T02:04:05.415Z,65.51
2022-12-04T02:06:32.153Z,64.95
2022-12-04T02:08:58.828Z,64.92
2022-12-04T02:11:36.992Z,65.62
2022-12-04T02:14:18.745Z,64.98
2022-12-04T02:16:47.218Z,65.56
2022-12-04T02:19:19.413Z,65.64
2022-12-04T02:21:46.172Z,65.32
2022-12-04T02:24:50.577Z,65.21
2022-12-04T02:27:36.186Z,65.03
2022-12-04T02:30:04.947Z,64.79
2022-12-04T02:32:43.305Z,64.58
2022-12-04T02:35:14.459Z,64.58
2022-12-04T02:37:44.554Z,65.00
2022-12-04T02:40:19.966Z,64.90
2022-12-04T02:42:59.992Z,65.10
2022-12-04T02:45:29.857Z,64.53
2022-12-04T02:47:56.717Z,64.80
2022-12-04T02:50:23.394Z,64.85
2022-12-04T02:53:05.876Z,65.07
2022-12-04T02:55:35.818Z,64.72
2022-12-04T02:58:25.591Z,64.53
2022-12-04T03:00:52.512Z,64.93
2022-12-04T03:03:21.874Z,64.84
2022-12-04T03:05:54.315Z,65.28
2022-12-04T03:08:23.212Z,64.63
2022-12-04T03:10:52.042Z,64.83
2022-12-04T03:13:20.436Z,65.17
2022-12-04T03:15:48.565Z,64.42
2022-12-04T03:18:26.327Z,64.25
2022-12-04T03:20:55.581Z,64.65
2022-12-04T03:23:34.573Z,64.71
2022-12-04T03:26:15.120Z,64.81
2022-12-04T03:28:49.882Z,65.19
2022-12-04T03:31:16.613Z,64.93
2022-12-04T03:33:45.332Z,65.28
2022-12-04T03:36:27.365Z,64.63
2022-12-04T03:39:15.780Z,65.25
2022-12-04T03:42:05.252Z,65.61
2022-12-04T03:44:48.847Z,65.13
2022-12-04T03:47:20.920Z,65.25
2022-12-04T03:50:17.914Z,64.81
2022-12-04T03:52:58.370Z,65.14
2022-12-04T03:55:27.372Z,64.90
2022-12-04T03:57:57.127Z,65.51
2022-12-04T04:00:23.776Z,65.69
2022-12-04T04:02:52.338Z,64.85
2022-12-04T04:05:19.067Z,64.97
2022-12-04T04:07:54.685Z,64.98
2022-12-04T04:10:24.219Z,65.02
2022-12-04T04:13:00.781Z,65.50
2022-12-04T04:15:27.486Z,65.02
2022-12-04T04:17:54.211Z,65.12
2022-12-04T04:20:27.279Z,64.92
2022-12-04T04:22:56.350Z,64.63
2022-12-04T04:25:23.213Z,64.97
2022-12-04T04:27:57.358Z,64.81
2022-12-04T04:30:23.991Z,64.79
2022-12-04T04:32:56.205Z,64.68
2022-12-04T04:35:38.440Z,64.85
2022-12-04T04:38:25.173Z,64.65
2022-12-04T04:41:03.934Z,64.36
2022-12-04T04:43:50.720Z,63.91
2022-12-04T04:46:20.667Z,64.22
2022-12-04T04:48:55.138Z,64.39
2022-12-04T04:51:21.787Z,64.41
2022-12-04T04:53:51.929Z,64.67
2022-12-04T04:56:18.650Z,65.12
2022-12-04T04:58:45.453Z,64.45
2022-12-04T05:01:22.723Z,64.99
2022-12-04T05:03:49.477Z,64.54
2022-12-04T05:06:16.139Z,64.96
2022-12-04T05:08:42.783Z,65.08
2022-12-04T05:11:11.815Z,65.09
2022-12-04T05:13:38.534Z,65.29
2022-12-04T05:16:06.572Z,64.86
2022-12-04T05:18:33.784Z,64.77
2022-12-04T05:21:04.699Z,64.96
2022-12-04T05:23:31.319Z,65.28
2022-12-04T05:26:01.465Z,65.35
2022-12-04T05:28:28.107Z,65.30
2022-12-04T05:30:58.988Z,65.02
2022-12-04T05:33:25.679Z,65.52
2022-12-04T05:36:02.863Z,65.57
2022-12-04T05:38:29.504Z,65.52
2022-12-04T05:40:58.251Z,65.61
2022-12-04T05:43:24.892Z,65.10
2022-12-04T05:45:51.523Z,65.64
2022-12-04T05:48:18.195Z,65.30
2022-12-04T05:50:44.823Z,65.05
2022-12-04T05:53:11.442Z,65.40
2022-12-04T05:55:38.065Z,65.36
2022-12-04T05:58:04.924Z,64.97
2022-12-04T06:00:31.664Z,65.25
2022-12-04T06:02:58.355Z,65.19
2022-12-04T06:05:25.057Z,65.27
2022-12-04T06:07:51.717Z,65.22
2022-12-04T06:10:18.430Z,65.39
2022-12-04T06:12:45.059Z,65.28
2022-12-04T06:15:11.698Z,65.28
2022-12-04T06:17:38.324Z,65.42
2022-12-04T06:20:11.252Z,65.49
2022-12-04T06:22:38.464Z,65.19
2022-12-04T06:25:05.306Z,65.21
2022-12-04T06:27:31.954Z,65.69
2022-12-04T06:29:58.991Z,65.44
2022-12-04T06:32:25.843Z,65.96
2022-12-04T06:34:53.387Z,65.96
2022-12-04T06:37:20.865Z,65.36
2022-12-04T06:39:47.494Z,65.55
2022-12-04T06:42:14.130Z,65.59
2022-12-04T06:44:40.775Z,64.86
2022-12-04T06:47:08.054Z,65.28
2022-12-04T06:49:34.722Z,65.44
2022-12-04T06:52:01.356Z,65.50
2022-12-04T06:54:27.969Z,64.87
2022-12-04T06:56:54.701Z,65.25
2022-12-04T06:59:21.344Z,65.45
2022-12-04T07:01:48.026Z,65.56
2022-12-04T07:04:14.798Z,65.36
2022-12-04T07:06:41.532Z,65.19
2022-12-04T07:09:15.579Z,65.27
2022-12-04T07:11:42.298Z,65.46
2022-12-04T07:14:09.039Z,65.42
2022-12-04T07:16:40.719Z,65.57
2022-12-04T07:19:12.596Z,65.36
2022-12-04T07:21:39.236Z,65.37
2022-12-04T07:24:06.018Z,64.98
2022-12-04T07:26:32.674Z,65.31
2022-12-04T07:28:59.507Z,65.26
2022-12-04T07:31:26.789Z,65.63
2022-12-04T07:33:53.589Z,65.50
2022-12-04T07:36:20.299Z,65.59
2022-12-04T07:38:46.958Z,65.64
2022-12-04T07:41:13.605Z,65.37
2022-12-04T07:43:40.495Z,65.62
2022-12-04T07:46:14.576Z,65.70
2022-12-04T07:48:41.293Z,65.64
2022-12-04T07:51:12.412Z,65.77
2022-12-04T07:53:39.061Z,65.75
2022-12-04T07:56:06.057Z,65.71
2022-12-04T07:58:32.894Z,65.93
2022-12-04T08:01:09.298Z,65.80
2022-12-04T08:03:36.475Z,65.65
2022-12-04T08:06:03.634Z,65.69
2022-12-04T08:08:30.245Z,65.81
2022-12-04T08:10:57.516Z,65.65
2022-12-04T08:13:24.249Z,65.23
2022-12-04T08:15:50.921Z,65.45
2022-12-04T08:18:17.702Z,65.53
2022-12-04T08:20:44.375Z,65.95
2022-12-04T08:23:11.018Z,65.83
2022-12-04T08:25:41.045Z,65.80
2022-12-04T08:28:07.723Z,65.80
2022-12-04T08:30:35.085Z,65.87
2022-12-04T08:33:01.802Z,65.94
2022-12-04T08:35:28.479Z,65.49
2022-12-04T08:37:55.119Z,65.95
2022-12-04T08:40:21.778Z,65.33
2022-12-04T08:42:48.512Z,65.49
2022-12-04T08:45:15.144Z,65.17
2022-12-04T08:47:41.774Z,65.38
2022-12-04T08:50:08.580Z,65.37
2022-12-04T08:52:35.312Z,65.72
2022-12-04T08:55:01.996Z,65.09
2022-12-04T08:57:28.622Z,65.37
2022-12-04T08:59:55.512Z,65.17
2022-12-04T09:02:22.345Z,65.14
2022-12-04T09:04:49.056Z,65.26
2022-12-04T09:07:15.745Z,64.91
2022-12-04T09:09:47.897Z,65.00
2022-12-04T09:12:14.943Z,65.08
2022-12-04T09:14:41.557Z,65.03
2022-12-04T09:17:08.171Z,65.12
2022-12-04T09:19:34.789Z,64.46
2022-12-04T09:22:01.403Z,64.96
2022-12-04T09:24:29.975Z,65.08
2022-12-04T09:26:56.594Z,64.90
2022-12-04T09:29:23.257Z,64.59
2022-12-04T09:31:49.897Z,64.47
2022-12-04T09:34:16.516Z,64.52
2022-12-04T09:36:43.147Z,64.80
2022-12-04T09:39:09.764Z,64.68
2022-12-04T09:41:36.277Z,64.57
2022-12-04T09:44:03.752Z,64.58
2022-12-04T09:46:39.543Z,64.46
2022-12-04T09:49:28.057Z,64.60
2022-12-04T09:51:55.598Z,64.85
2022-12-04T09:54:24.052Z,64.64
2022-12-04T09:57:01.787Z,64.66
2022-12-04T09:59:29.884Z,64.80
2022-12-04T10:02:21.118Z,64.93
2022-12-04T10:04:47.876Z,64.61
2022-12-04T10:07:16.824Z,64.90
2022-12-04T10:10:20.866Z,64.70
2022-12-04T10:12:59.003Z,64.51
2022-12-04T10:15:40.926Z,64.51
2022-12-04T10:18:26.299Z,64.50
2022-12-04T10:21:35.044Z,64.38
2022-12-04T10:24:26.496Z,64.42
2022-12-04T10:26:53.117Z,64.27
2022-12-04T10:29:26.348Z,64.91
2022-12-04T10:31:54.356Z,64.50
2022-12-04T10:34:25.062Z,64.22
2022-12-04T10:36:53.307Z,63.95
2022-12-04T10:39:29.818Z,64.12
2022-12-04T10:42:14.396Z,63.64
2022-12-04T10:44:41.040Z,64.32
2022-12-04T10:47:09.086Z,64.33
2022-12-04T10:49:35.747Z,64.11
2022-12-04T10:52:02.389Z,63.76
2022-12-04T10:54:50.946Z,63.39
2022-12-04T10:57:17.592Z,63.56
2022-12-04T10:59:55.075Z,63.32
2022-12-04T11:02:29.297Z,63.00
2022-12-04T11:04:57.010Z,63.49
2022-12-04T11:07:32.163Z,62.70
2022-12-04T11:10:01.147Z,63.54
2022-12-04T11:12:27.785Z,63.26
2022-12-04T11:15:06.222Z,63.14
2022-12-04T11:17:32.854Z,62.94
2022-12-04T11:20:06.627Z,62.95
2022-12-04T11:22:33.262Z,62.61
2022-12-04T11:24:59.890Z,62.94
2022-12-04T11:27:32.743Z,62.38
2022-12-04T11:30:01.262Z,62.24
2022-12-04T11:32:29.961Z,62.91
2022-12-04T11:34:59.655Z,62.69
2022-12-04T11:37:30.683Z,63.36
2022-12-04T11:39:57.629Z,63.54
2022-12-04T11:42:26.113Z,62.95
2022-12-04T11:45:07.693Z,63.33
2022-12-04T11:47:34.328Z,62.52
2022-12-04T11:50:23.315Z,62.68
2022-12-04T11:53:17.550Z,63.22
2022-12-04T11:56:14.398Z,62.84
2022-12-04T11:59:18.000Z,63.18
2022-12-04T12:01:57.924Z,63.50
2022-12-04T12:04:43.138Z,63.51
2022-12-04T12:07:22.389Z,63.30
2022-12-04T12:09:58.703Z,63.67
2022-12-04T12:13:03.041Z,63.56
2022-12-04T12:16:07.277Z,63.07
2022-12-04T12:18:42.910Z,63.37
2022-12-04T12:21:32.889Z,63.49
2022-12-04T12:24:27.280Z,63.61
2022-12-04T12:26:59.861Z,62.90
2022-12-04T12:29:54.057Z,63.01
2022-12-04T12:32:33.063Z,63.16
2022-12-04T12:34:59.695Z,62.79
2022-12-04T12:37:31.047Z,63.12
2022-12-04T12:40:12.545Z,63.37
2022-12-04T12:42:43.905Z,63.38
2022-12-04T12:45:19.669Z,63.07
2022-12-04T12:47:46.864Z,63.30
2022-12-04T12:50:24.738Z,63.69
2022-12-04T12:53:03.224Z,63.38
2022-12-04T12:55:36.418Z,63.63
2022-12-04T12:58:18.144Z,63.29
2022-12-04T13:01:37.662Z,62.85
2022-12-04T13:04:11.661Z,63.14
2022-12-04T13:06:39.873Z,63.18
2022-12-04T13:09:30.287Z,62.92
2022-12-04T13:12:06.432Z,63.21
2022-12-04T13:14:33.654Z,63.22
2022-12-04T13:17:30.959Z,62.73
2022-12-04T13:19:57.986Z,63.07
2022-12-04T13:22:30.588Z,62.96
2022-12-04T13:25:03.112Z,62.54
2022-12-04T13:27:58.573Z,63.10
2022-12-04T13:30:45.001Z,62.70
2022-12-04T13:33:23.325Z,62.76
2022-12-04T13:36:28.903Z,62.97
2022-12-04T13:39:17.134Z,62.33
2022-12-04T13:41:43.788Z,62.40
2022-12-04T13:44:14.777Z,62.34
2022-12-04T13:46:53.917Z,61.88
2022-12-04T13:49:20.412Z,62.41
2022-12-04T13:51:48.018Z,62.14
2022-12-04T13:54:14.502Z,62.50
2022-12-04T13:56:48.549Z,62.19
2022-12-04T13:59:28.630Z,61.91
2022-12-04T14:01:57.212Z,62.74
2022-12-04T14:04:35.849Z,63.19
2022-12-04T14:07:03.084Z,63.41
2022-12-04T14:09:40.657Z,63.58
2022-12-04T14:12:10.052Z,63.30
2022-12-04T14:14:40.050Z,61.64
2022-12-04T14:17:14.531Z,61.27
2022-12-04T14:19:41.204Z,62.58
2022-12-04T14:22:31.962Z,62.18
2022-12-04T14:25:14.650Z,63.24
2022-12-04T14:27:41.127Z,62.46
2022-12-04T14:30:28.843Z,62.96
2022-12-04T14:33:31.001Z,62.96
2022-12-04T14:36:05.614Z,62.86
2022-12-04T14:38:32.252Z,62.97
2022-12-04T14:40:59.004Z,62.50
2022-12-04T14:43:33.329Z,62.81
2022-12-04T14:46:24.200Z,63.01
2022-12-04T14:49:05.780Z,62.79
2022-12-04T14:51:44.169Z,62.88
2022-12-04T14:54:38.985Z,63.32
2022-12-04T14:57:17.447Z,63.91
2022-12-04T14:59:47.245Z,63.08
2022-12-04T15:02:22.094Z,63.32
2022-12-04T15:04:49.273Z,63.76
2022-12-04T15:07:26.453Z,64.16
2022-12-04T15:09:54.733Z,63.99
2022-12-04T15:12:23.771Z,63.49
2022-12-04T15:14:50.420Z,64.54
2022-12-04T15:17:17.846Z,64.01
2022-12-04T15:19:44.518Z,64.95
2022-12-04T15:22:22.554Z,64.12
2022-12-04T15:24:50.093Z,64.44
2022-12-04T15:27:16.733Z,63.83
2022-12-04T15:29:43.362Z,64.68
2022-12-04T15:32:11.080Z,63.88
2022-12-04T15:34:40.685Z,64.81
2022-12-04T15:37:12.224Z,64.29
2022-12-04T15:39:38.957Z,64.39
2022-12-04T15:42:17.364Z,64.56
2022-12-04T15:45:03.542Z,64.27
2022-12-04T15:47:32.094Z,64.42
2022-12-04T15:50:09.020Z,64.86
2022-12-04T15:52:35.950Z,64.57
2022-12-04T15:55:06.269Z,64.48
2022-12-04T15:57:40.451Z,64.21
2022-12-04T16:00:22.289Z,63.71
2022-12-04T16:02:48.923Z,64.49
2022-12-04T16:05:21.404Z,65.00
2022-12-04T16:07:58.485Z,65.16
2022-12-04T16:10:34.937Z,64.32
2022-12-04T16:13:03.009Z,64.32
2022-12-04T16:15:38.373Z,64.85
2022-12-04T16:18:05.855Z,65.11
2022-12-04T16:20:34.433Z,65.08
2022-12-04T16:23:01.093Z,65.72
2022-12-04T16:25:27.973Z,64.77
2022-12-04T16:27:54.608Z,65.17
2022-12-04T16:30:21.298Z,64.81
2022-12-04T16:32:48.053Z,65.61
2022-12-04T16:35:16.677Z,65.16
2022-12-04T16:37:43.326Z,65.57
2022-12-04T16:40:11.762Z,65.57
2022-12-04T16:42:38.516Z,65.34
2022-12-04T16:45:20.156Z,65.41
2022-12-04T16:47:47.411Z,65.13
2022-12-04T16:50:14.139Z,65.24
2022-12-04T16:52:40.827Z,65.83
2022-12-04T16:55:18.466Z,65.53
2022-12-04T16:57:45.095Z,65.82
2022-12-04T17:00:15.354Z,65.02
2022-12-04T17:02:42.026Z,65.61
2022-12-04T17:05:19.664Z,65.23
2022-12-04T17:07:46.341Z,65.17
2022-12-04T17:10:13.232Z,65.44
2022-12-04T17:12:40.485Z,65.44
2022-12-04T17:15:07.545Z,64.99
2022-12-04T17:17:34.182Z,65.80
2022-12-04T17:20:00.811Z,65.59
2022-12-04T17:22:27.536Z,65.72
2022-12-04T17:24:56.247Z,64.40
2022-12-04T17:27:23.278Z,64.96
2022-12-04T17:29:49.907Z,65.51
2022-12-04T17:32:16.536Z,64.55
2022-12-04T17:34:43.173Z,64.81
2022-12-04T17:37:09.897Z,65.45
2022-12-04T17:39:36.511Z,64.71
2022-12-04T17:42:03.142Z,65.09
2022-12-04T17:44:29.798Z,65.46
2022-12-04T17:46:56.507Z,65.27
2022-12-04T17:49:23.199Z,66.05
2022-12-04T17:51:49.844Z,65.36
2022-12-04T17:54:16.469Z,65.54
2022-12-04T17:56:47.756Z,65.82
2022-12-04T17:59:16.190Z,65.81
2022-12-04T18:01:43.090Z,65.25
2022-12-04T18:04:09.746Z,65.60
2022-12-04T18:06:37.929Z,65.47
2022-12-04T18:09:05.350Z,65.02
2022-12-04T18:11:33.023Z,65.52
2022-12-04T18:14:12.339Z,64.67
2022-12-04T18:16:49.596Z,65.15
2022-12-04T18:19:16.471Z,64.84
2022-12-04T18:21:43.187Z,64.97
2022-12-04T18:24:09.835Z,64.99
2022-12-04T18:26:39.800Z,64.92
2022-12-04T18:29:06.438Z,65.19
2022-12-04T18:31:33.216Z,64.85
2022-12-04T18:33:59.918Z,65.18
2022-12-04T18:36:31.554Z,64.54
2022-12-04T18:39:00.441Z,65.36
2022-12-04T18:41:27.565Z,65.58
2022-12-04T18:43:54.270Z,65.04
2022-12-04T18:46:21.095Z,64.99
2022-12-04T18:48:48.150Z,65.33
2022-12-04T18:51:34.944Z,65.47
2022-12-04T18:54:06.858Z,64.99
2022-12-04T18:56:34.016Z,65.42
2022-12-04T18:59:08.621Z,65.52
2022-12-04T19:01:35.299Z,65.04
2022-12-04T19:04:03.805Z,65.19
2022-12-04T19:06:32.204Z,64.68
2022-12-04T19:09:00.217Z,64.89
2022-12-04T19:11:26.921Z,65.35
2022-12-04T19:13:54.476Z,65.29
2022-12-04T19:16:21.237Z,65.12
2022-12-04T19:18:47.942Z,64.45
2022-12-04T19:21:14.597Z,64.56
2022-12-04T19:23:41.628Z,65.02
2022-12-04T19:26:08.265Z,64.17
2022-12-04T19:28:35.238Z,64.65
2022-12-04T19:31:01.916Z,64.78
2022-12-04T19:33:28.556Z,64.55
2022-12-04T19:35:58.729Z,64.58
2022-12-04T19:38:25.631Z,64.26
2022-12-04T19:41:05.745Z,64.20
2022-12-04T19:43:32.405Z,64.49
2022-12-04T19:45:59.873Z,63.64
2022-12-04T19:48:26.803Z,64.16
2022-12-04T19:50:53.435Z,63.72
2022-12-04T19:53:20.071Z,63.83
2022-12-04T19:55:46.727Z,64.12
2022-12-04T19:58:13.468Z,63.90
2022-12-04T20:00:40.138Z,64.00
2022-12-04T20:03:06.759Z,63.63
2022-12-04T20:05:36.152Z,63.87
2022-12-04T20:10:28.285Z,63.40
2022-12-04T20:12:54.929Z,63.40
2022-12-04T20:15:21.586Z,63.55
2022-12-04T20:17:48.254Z,63.80
2022-12-04T20:20:14.878Z,64.49
2022-12-04T20:22:41.534Z,64.20
2022-12-04T20:25:08.404Z,64.13
2022-12-04T20:27:35.074Z,64.18
2022-12-04T20:30:01.720Z,63.83
2022-12-04T20:32:28.356Z,63.69
2022-12-04T20:34:55.039Z,63.60
2022-12-04T20:37:21.733Z,63.03
2022-12-04T20:39:48.398Z,62.49
2022-12-04T20:42:15.041Z,63.38
2022-12-04T20:44:41.676Z,64.06
2022-12-04T20:47:08.348Z,64.36
2022-12-04T20:49:35.039Z,64.60
2022-12-04T20:52:01.667Z,64.40
2022-12-04T20:54:28.798Z,64.56
2022-12-04T20:56:55.663Z,64.58
2022-12-04T20:59:22.724Z,64.60
2022-12-04T21:01:49.465Z,64.13
2022-12-04T21:04:16.298Z,64.17
2022-12-04T21:06:42.977Z,64.10
2022-12-04T21:09:14.827Z,64.21
2022-12-04T21:11:43.428Z,64.45
2022-12-04T21:14:18.196Z,64.71
2022-12-04T21:16:45.185Z,64.42
2022-12-04T21:19:13.523Z,65.29
2022-12-04T21:21:40.466Z,65.00
2022-12-04T21:24:08.115Z,64.91
2022-12-04T21:26:34.842Z,64.89
2022-12-04T21:29:01.694Z,65.68
2022-12-04T21:31:28.529Z,66.23
2022-12-04T21:33:55.899Z,67.09
2022-12-04T21:36:22.550Z,67.39
2022-12-04T21:38:49.236Z,68.09
2022-12-04T21:41:15.912Z,67.18
2022-12-04T21:43:42.544Z,67.82
2022-12-04T21:46:09.735Z,68.67
2022-12-04T21:48:36.679Z,68.25
2022-12-04T21:51:13.275Z,68.00
2022-12-04T21:53:53.787Z,68.02
2022-12-04T21:56:23.883Z,68.80
2022-12-04T21:58:50.836Z,68.61
2022-12-04T22:01:17.884Z,70.02
2022-12-04T22:03:44.598Z,69.83
2022-12-04T22:06:11.259Z,68.86
2022-12-04T22:08:38.854Z,69.69
2022-12-04T22:11:06.472Z,68.59
2022-12-04T22:13:33.419Z,69.04
2022-12-04T22:16:04.131Z,68.90
2022-12-04T22:18:30.798Z,69.31
2022-12-04T22:20:57.471Z,69.14
2022-12-04T22:23:24.108Z,68.57
2022-12-04T22:25:50.733Z,68.54
2022-12-04T22:28:17.440Z,67.69
2022-12-04T22:30:44.086Z,67.82
2022-12-04T22:33:10.800Z,68.30
2022-12-04T22:35:37.509Z,70.22
2022-12-04T22:38:04.128Z,71.22
2022-12-04T22:40:30.754Z,71.14
2022-12-04T22:42:57.430Z,71.68
2022-12-04T22:45:24.118Z,70.50
2022-12-04T22:47:50.780Z,71.62
2022-12-04T22:50:17.562Z,71.92
2022-12-04T22:52:44.235Z,72.06
2022-12-04T22:55:10.870Z,71.89
2022-12-04T22:57:37.504Z,72.34
2022-12-04T23:00:04.470Z,72.49
2022-12-04T23:02:32.480Z,71.92
2022-12-04T23:04:59.195Z,71.89
2022-12-04T23:07:25.849Z,71.84
2022-12-04T23:09:52.487Z,71.41
2022-12-04T23:12:19.116Z,72.08
2022-12-04T23:14:45.743Z,71.88
2022-12-04T23:17:12.377Z,71.59
2022-12-04T23:19:39.144Z,71.15
2022-12-04T23:22:05.776Z,70.74
2022-12-04T23:24:32.404Z,71.13
2022-12-04T23:26:59.072Z,72.32
2022-12-04T23:32:12.379Z,71.54
2022-12-04T23:34:39.011Z,71.39
2022-12-04T23:37:05.632Z,71.64
2022-12-04T23:39:32.245Z,71.72
2022-12-04T23:41:58.872Z,71.70
2022-12-04T23:44:25.499Z,71.48
2022-12-04T23:46:52.270Z,70.69
2022-12-04T23:49:18.927Z,71.08
2022-12-04T23:51:45.643Z,70.93
2022-12-04T23:54:12.258Z,71.89
2022-12-04T23:56:38.881Z,71.73
2022-12-04T23:59:05.509Z,72.94
